sensor_id;sensor_type;location;lat;lon;timestamp;temperature;humidity
65074;DHT22;52218;51.224;-2.328;2022-07-29T00:01:41;16.10;85.90
65074;DHT22;52218;51.224;-2.328;2022-07-29T00:05:23;16.00;85.90
65074;DHT22;52218;51.224;-2.328;2022-07-29T00:09:05;16.00;86.60
65074;DHT22;52218;51.224;-2.328;2022-07-29T00:12:47;15.90;86.70
65074;DHT22;52218;51.224;-2.328;2022-07-29T00:16:29;15.80;86.80
65074;DHT22;52218;51.224;-2.328;2022-07-29T00:20:11;15.70;88.00
65074;DHT22;52218;51.224;-2.328;2022-07-29T00:23:53;15.70;88.10
65074;DHT22;52218;51.224;-2.328;2022-07-29T00:27:36;15.60;88.30
65074;DHT22;52218;51.224;-2.328;2022-07-29T00:31:18;15.50;89.10
65074;DHT22;52218;51.224;-2.328;2022-07-29T00:35:00;15.40;89.70
65074;DHT22;52218;51.224;-2.328;2022-07-29T00:39:00;15.30;90.40
65074;DHT22;52218;51.224;-2.328;2022-07-29T00:42:50;15.20;90.80
65074;DHT22;52218;51.224;-2.328;2022-07-29T00:46:32;15.10;90.70
65074;DHT22;52218;51.224;-2.328;2022-07-29T00:50:14;15.00;91.00
65074;DHT22;52218;51.224;-2.328;2022-07-29T00:53:56;14.90;91.30
65074;DHT22;52218;51.224;-2.328;2022-07-29T00:57:39;14.80;91.60
65074;DHT22;52218;51.224;-2.328;2022-07-29T01:01:21;14.70;91.70
65074;DHT22;52218;51.224;-2.328;2022-07-29T01:05:05;14.70;92.00
65074;DHT22;52218;51.224;-2.328;2022-07-29T01:08:48;14.60;92.50
65074;DHT22;52218;51.224;-2.328;2022-07-29T01:12:32;14.50;92.80
65074;DHT22;52218;51.224;-2.328;2022-07-29T01:17:09;14.50;92.90
65074;DHT22;52218;51.224;-2.328;2022-07-29T01:20:52;14.50;93.20
65074;DHT22;52218;51.224;-2.328;2022-07-29T01:32:59;14.30;93.20
65074;DHT22;52218;51.224;-2.328;2022-07-29T01:36:50;14.20;93.60
65074;DHT22;52218;51.224;-2.328;2022-07-29T01:44:35;14.20;93.70
65074;DHT22;52218;51.224;-2.328;2022-07-29T01:48:27;14.20;93.90
65074;DHT22;52218;51.224;-2.328;2022-07-29T01:52:15;14.20;93.90
65074;DHT22;52218;51.224;-2.328;2022-07-29T01:56:02;14.20;94.20
65074;DHT22;52218;51.224;-2.328;2022-07-29T01:59:46;14.20;94.30
65074;DHT22;52218;51.224;-2.328;2022-07-29T02:03:30;14.10;94.50
65074;DHT22;52218;51.224;-2.328;2022-07-29T02:07:18;14.10;94.50
65074;DHT22;52218;51.224;-2.328;2022-07-29T02:11:00;14.10;94.60
65074;DHT22;52218;51.224;-2.328;2022-07-29T02:14:47;14.10;92.20
65074;DHT22;52218;51.224;-2.328;2022-07-29T02:18:30;14.00;94.50
65074;DHT22;52218;51.224;-2.328;2022-07-29T02:22:13;14.00;94.60
65074;DHT22;52218;51.224;-2.328;2022-07-29T02:25:57;14.00;94.60
65074;DHT22;52218;51.224;-2.328;2022-07-29T02:29:41;14.00;94.80
65074;DHT22;52218;51.224;-2.328;2022-07-29T02:33:23;14.00;94.80
65074;DHT22;52218;51.224;-2.328;2022-07-29T02:37:08;14.00;95.00
65074;DHT22;52218;51.224;-2.328;2022-07-29T02:40:52;14.00;94.90
65074;DHT22;52218;51.224;-2.328;2022-07-29T02:44:35;14.00;95.20
65074;DHT22;52218;51.224;-2.328;2022-07-29T02:48:18;14.10;95.10
65074;DHT22;52218;51.224;-2.328;2022-07-29T02:52:04;14.10;95.20
65074;DHT22;52218;51.224;-2.328;2022-07-29T02:55:57;14.10;95.10
65074;DHT22;52218;51.224;-2.328;2022-07-29T02:59:42;14.10;92.80
65074;DHT22;52218;51.224;-2.328;2022-07-29T03:03:34;14.20;95.10
65074;DHT22;52218;51.224;-2.328;2022-07-29T03:07:20;14.20;95.00
65074;DHT22;52218;51.224;-2.328;2022-07-29T03:11:03;14.20;95.10
65074;DHT22;52218;51.224;-2.328;2022-07-29T03:14:46;14.10;95.10
65074;DHT22;52218;51.224;-2.328;2022-07-29T03:18:29;14.10;95.20
65074;DHT22;52218;51.224;-2.328;2022-07-29T03:22:12;14.10;95.10
65074;DHT22;52218;51.224;-2.328;2022-07-29T03:25:55;14.00;95.30
65074;DHT22;52218;51.224;-2.328;2022-07-29T03:29:38;14.00;95.30
65074;DHT22;52218;51.224;-2.328;2022-07-29T03:33:20;14.00;95.40
65074;DHT22;52218;51.224;-2.328;2022-07-29T03:37:02;14.00;95.40
65074;DHT22;52218;51.224;-2.328;2022-07-29T03:40:51;14.00;95.30
65074;DHT22;52218;51.224;-2.328;2022-07-29T03:44:34;13.90;95.50
65074;DHT22;52218;51.224;-2.328;2022-07-29T03:48:21;13.90;95.50
65074;DHT22;52218;51.224;-2.328;2022-07-29T03:52:05;13.80;95.60
65074;DHT22;52218;51.224;-2.328;2022-07-29T03:55:53;13.80;95.60
65074;DHT22;52218;51.224;-2.328;2022-07-29T03:59:36;13.70;95.80
65074;DHT22;52218;51.224;-2.328;2022-07-29T04:03:19;13.60;95.80
65074;DHT22;52218;51.224;-2.328;2022-07-29T04:07:03;13.60;95.90
65074;DHT22;52218;51.224;-2.328;2022-07-29T04:10:45;13.60;96.30
65074;DHT22;52218;51.224;-2.328;2022-07-29T04:14:27;13.50;96.40
65074;DHT22;52218;51.224;-2.328;2022-07-29T04:18:09;13.50;96.30
65074;DHT22;52218;51.224;-2.328;2022-07-29T04:21:51;13.40;96.40
65074;DHT22;52218;51.224;-2.328;2022-07-29T04:25:36;13.40;96.50
65074;DHT22;52218;51.224;-2.328;2022-07-29T04:29:18;13.40;96.60
65074;DHT22;52218;51.224;-2.328;2022-07-29T04:33:01;13.40;96.60
65074;DHT22;52218;51.224;-2.328;2022-07-29T04:36:43;13.40;96.60
65074;DHT22;52218;51.224;-2.328;2022-07-29T04:40:25;13.40;96.60
65074;DHT22;52218;51.224;-2.328;2022-07-29T04:44:07;13.40;96.70
65074;DHT22;52218;51.224;-2.328;2022-07-29T04:47:50;13.30;96.80
65074;DHT22;52218;51.224;-2.328;2022-07-29T04:51:32;13.30;96.80
65074;DHT22;52218;51.224;-2.328;2022-07-29T04:55:14;13.30;96.90
65074;DHT22;52218;51.224;-2.328;2022-07-29T04:58:56;13.30;97.00
65074;DHT22;52218;51.224;-2.328;2022-07-29T05:02:38;13.30;97.00
65074;DHT22;52218;51.224;-2.328;2022-07-29T05:06:20;13.30;96.90
65074;DHT22;52218;51.224;-2.328;2022-07-29T05:10:02;13.30;96.90
65074;DHT22;52218;51.224;-2.328;2022-07-29T05:13:44;13.30;97.10
65074;DHT22;52218;51.224;-2.328;2022-07-29T05:17:27;13.30;97.00
65074;DHT22;52218;51.224;-2.328;2022-07-29T05:21:09;13.30;97.20
65074;DHT22;52218;51.224;-2.328;2022-07-29T05:24:51;13.20;97.30
65074;DHT22;52218;51.224;-2.328;2022-07-29T05:28:34;13.30;97.40
65074;DHT22;52218;51.224;-2.328;2022-07-29T05:32:17;13.40;97.50
65074;DHT22;52218;51.224;-2.328;2022-07-29T05:35:59;13.40;97.40
65074;DHT22;52218;51.224;-2.328;2022-07-29T05:39:41;13.50;97.40
65074;DHT22;52218;51.224;-2.328;2022-07-29T05:43:30;13.60;97.30
65074;DHT22;52218;51.224;-2.328;2022-07-29T05:47:13;13.80;97.10
65074;DHT22;52218;51.224;-2.328;2022-07-29T05:50:55;13.80;96.90
65074;DHT22;52218;51.224;-2.328;2022-07-29T05:54:37;13.90;96.90
65074;DHT22;52218;51.224;-2.328;2022-07-29T05:58:19;13.90;96.80
65074;DHT22;52218;51.224;-2.328;2022-07-29T06:02:01;14.00;96.50
65074;DHT22;52218;51.224;-2.328;2022-07-29T06:05:43;14.00;96.40
65074;DHT22;52218;51.224;-2.328;2022-07-29T06:09:26;14.10;96.30
65074;DHT22;52218;51.224;-2.328;2022-07-29T06:13:08;14.30;96.30
65074;DHT22;52218;51.224;-2.328;2022-07-29T06:16:50;14.40;96.20
65074;DHT22;52218;51.224;-2.328;2022-07-29T06:20:32;14.50;96.10
65074;DHT22;52218;51.224;-2.328;2022-07-29T06:24:15;14.70;96.00
65074;DHT22;52218;51.224;-2.328;2022-07-29T06:27:58;14.90;95.80
65074;DHT22;52218;51.224;-2.328;2022-07-29T06:31:40;15.20;95.50
65074;DHT22;52218;51.224;-2.328;2022-07-29T06:35:22;15.40;95.40
65074;DHT22;52218;51.224;-2.328;2022-07-29T06:39:23;15.70;94.90
65074;DHT22;52218;51.224;-2.328;2022-07-29T06:43:05;15.90;94.20
65074;DHT22;52218;51.224;-2.328;2022-07-29T06:46:47;16.20;93.90
65074;DHT22;52218;51.224;-2.328;2022-07-29T06:50:31;16.50;93.60
65074;DHT22;52218;51.224;-2.328;2022-07-29T06:54:13;16.80;93.10
65074;DHT22;52218;51.224;-2.328;2022-07-29T06:57:56;17.20;93.00
65074;DHT22;52218;51.224;-2.328;2022-07-29T07:01:42;17.60;92.70
65074;DHT22;52218;51.224;-2.328;2022-07-29T07:05:24;17.90;92.30
65074;DHT22;52218;51.224;-2.328;2022-07-29T07:09:06;18.40;92.60
65074;DHT22;52218;51.224;-2.328;2022-07-29T07:12:48;18.70;91.30
65074;DHT22;52218;51.224;-2.328;2022-07-29T07:16:31;19.00;90.80
65074;DHT22;52218;51.224;-2.328;2022-07-29T07:20:13;19.20;90.60
65074;DHT22;52218;51.224;-2.328;2022-07-29T07:23:55;19.40;90.50
65074;DHT22;52218;51.224;-2.328;2022-07-29T07:27:38;19.60;90.70
65074;DHT22;52218;51.224;-2.328;2022-07-29T07:31:20;19.80;90.40
65074;DHT22;52218;51.224;-2.328;2022-07-29T07:35:05;20.00;89.10
65074;DHT22;52218;51.224;-2.328;2022-07-29T07:38:47;20.20;89.00
65074;DHT22;52218;51.224;-2.328;2022-07-29T07:42:29;20.40;88.10
65074;DHT22;52218;51.224;-2.328;2022-07-29T07:46:11;20.70;87.70
65074;DHT22;52218;51.224;-2.328;2022-07-29T07:49:53;20.90;87.20
65074;DHT22;52218;51.224;-2.328;2022-07-29T07:53:35;21.10;87.80
65074;DHT22;52218;51.224;-2.328;2022-07-29T07:57:17;21.40;86.00
65074;DHT22;52218;51.224;-2.328;2022-07-29T08:00:59;21.70;85.20
65074;DHT22;52218;51.224;-2.328;2022-07-29T08:04:41;21.90;84.70
65074;DHT22;52218;51.224;-2.328;2022-07-29T08:08:23;22.10;83.50
65074;DHT22;52218;51.224;-2.328;2022-07-29T08:12:05;22.20;83.20
65074;DHT22;52218;51.224;-2.328;2022-07-29T08:15:48;22.40;83.00
65074;DHT22;52218;51.224;-2.328;2022-07-29T08:19:39;22.50;82.20
65074;DHT22;52218;51.224;-2.328;2022-07-29T08:23:21;22.50;81.30
65074;DHT22;52218;51.224;-2.328;2022-07-29T08:27:06;22.60;81.30
65074;DHT22;52218;51.224;-2.328;2022-07-29T08:31:08;22.80;80.80
65074;DHT22;52218;51.224;-2.328;2022-07-29T08:34:50;23.10;80.20
65074;DHT22;52218;51.224;-2.328;2022-07-29T08:38:32;23.60;78.80
65074;DHT22;52218;51.224;-2.328;2022-07-29T08:42:14;24.00;76.50
65074;DHT22;52218;51.224;-2.328;2022-07-29T08:45:58;24.40;74.70
65074;DHT22;52218;51.224;-2.328;2022-07-29T08:49:40;24.70;74.10
65074;DHT22;52218;51.224;-2.328;2022-07-29T08:53:24;24.90;73.80
65074;DHT22;52218;51.224;-2.328;2022-07-29T08:57:08;25.10;73.00
65074;DHT22;52218;51.224;-2.328;2022-07-29T09:00:55;25.40;72.10
65074;DHT22;52218;51.224;-2.328;2022-07-29T09:04:39;25.70;71.00
65074;DHT22;52218;51.224;-2.328;2022-07-29T09:08:21;26.00;69.40
65074;DHT22;52218;51.224;-2.328;2022-07-29T09:12:04;26.20;69.40
65074;DHT22;52218;51.224;-2.328;2022-07-29T09:15:48;26.40;68.10
65074;DHT22;52218;51.224;-2.328;2022-07-29T09:19:33;26.80;67.80
65074;DHT22;52218;51.224;-2.328;2022-07-29T09:23:16;27.10;66.10
65074;DHT22;52218;51.224;-2.328;2022-07-29T09:27:22;27.40;66.00
65074;DHT22;52218;51.224;-2.328;2022-07-29T09:31:05;27.60;64.70
65074;DHT22;52218;51.224;-2.328;2022-07-29T09:34:48;27.90;66.10
65074;DHT22;52218;51.224;-2.328;2022-07-29T09:38:31;28.10;61.80
65074;DHT22;52218;51.224;-2.328;2022-07-29T09:42:13;28.30;61.60
65074;DHT22;52218;51.224;-2.328;2022-07-29T09:46:13;28.70;59.40
65074;DHT22;52218;51.224;-2.328;2022-07-29T09:49:57;29.20;59.50
65074;DHT22;52218;51.224;-2.328;2022-07-29T09:53:40;29.70;57.00
65074;DHT22;52218;51.224;-2.328;2022-07-29T09:57:27;30.20;55.20
65074;DHT22;52218;51.224;-2.328;2022-07-29T10:01:12;30.70;52.80
65074;DHT22;52218;51.224;-2.328;2022-07-29T10:04:54;31.30;49.60
65074;DHT22;52218;51.224;-2.328;2022-07-29T10:08:37;31.70;50.80
65074;DHT22;52218;51.224;-2.328;2022-07-29T10:12:19;32.20;47.40
65074;DHT22;52218;51.224;-2.328;2022-07-29T10:16:01;32.60;47.10
65074;DHT22;52218;51.224;-2.328;2022-07-29T10:19:44;33.20;45.30
65074;DHT22;52218;51.224;-2.328;2022-07-29T10:23:27;33.90;45.60
65074;DHT22;52218;51.224;-2.328;2022-07-29T10:27:27;34.50;42.70
65074;DHT22;52218;51.224;-2.328;2022-07-29T10:31:25;35.10;42.10
65074;DHT22;52218;51.224;-2.328;2022-07-29T10:35:19;35.70;44.50
65074;DHT22;52218;51.224;-2.328;2022-07-29T10:43:46;36.60;43.40
65074;DHT22;52218;51.224;-2.328;2022-07-29T10:47:32;37.10;39.00
65074;DHT22;52218;51.224;-2.328;2022-07-29T10:51:16;37.60;37.90
65074;DHT22;52218;51.224;-2.328;2022-07-29T10:54:58;37.90;37.60
65074;DHT22;52218;51.224;-2.328;2022-07-29T10:58:43;38.10;37.00
65074;DHT22;52218;51.224;-2.328;2022-07-29T11:06:23;38.00;36.80
65074;DHT22;52218;51.224;-2.328;2022-07-29T11:13:57;37.60;36.80
65074;DHT22;52218;51.224;-2.328;2022-07-29T11:21:43;38.90;37.80
65074;DHT22;52218;51.224;-2.328;2022-07-29T11:25:35;39.50;34.50
65074;DHT22;52218;51.224;-2.328;2022-07-29T11:29:38;39.80;34.50
65074;DHT22;52218;51.224;-2.328;2022-07-29T11:33:31;40.30;34.10
65074;DHT22;52218;51.224;-2.328;2022-07-29T11:37:33;40.40;34.50
65074;DHT22;52218;51.224;-2.328;2022-07-29T11:41:27;40.70;33.80
65074;DHT22;52218;51.224;-2.328;2022-07-29T11:45:19;40.90;32.90
65074;DHT22;52218;51.224;-2.328;2022-07-29T11:49:26;41.30;32.10
65074;DHT22;52218;51.224;-2.328;2022-07-29T11:53:14;41.30;32.50
65074;DHT22;52218;51.224;-2.328;2022-07-29T11:57:16;41.00;32.30
65074;DHT22;52218;51.224;-2.328;2022-07-29T12:00:59;40.90;32.40
65074;DHT22;52218;51.224;-2.328;2022-07-29T12:04:53;40.90;31.20
65074;DHT22;52218;51.224;-2.328;2022-07-29T12:08:41;40.30;33.00
65074;DHT22;52218;51.224;-2.328;2022-07-29T12:12:24;39.50;33.00
65074;DHT22;52218;51.224;-2.328;2022-07-29T12:16:07;39.40;32.10
65074;DHT22;52218;51.224;-2.328;2022-07-29T12:19:49;39.60;34.10
65074;DHT22;52218;51.224;-2.328;2022-07-29T12:23:31;39.80;31.30
65074;DHT22;52218;51.224;-2.328;2022-07-29T12:27:17;40.00;32.20
65074;DHT22;52218;51.224;-2.328;2022-07-29T12:31:14;40.10;31.80
65074;DHT22;52218;51.224;-2.328;2022-07-29T12:35:19;40.30;33.00
65074;DHT22;52218;51.224;-2.328;2022-07-29T12:39:03;40.60;33.00
65074;DHT22;52218;51.224;-2.328;2022-07-29T12:43:11;41.00;31.60
65074;DHT22;52218;51.224;-2.328;2022-07-29T12:47:03;41.30;32.00
65074;DHT22;52218;51.224;-2.328;2022-07-29T12:50:59;41.40;30.20
65074;DHT22;52218;51.224;-2.328;2022-07-29T12:54:47;41.10;32.00
65074;DHT22;52218;51.224;-2.328;2022-07-29T12:58:33;41.00;31.70
65074;DHT22;52218;51.224;-2.328;2022-07-29T13:02:22;41.20;30.50
65074;DHT22;52218;51.224;-2.328;2022-07-29T13:06:04;41.20;30.60
65074;DHT22;52218;51.224;-2.328;2022-07-29T13:09:46;41.00;30.60
65074;DHT22;52218;51.224;-2.328;2022-07-29T13:13:28;40.80;30.10
65074;DHT22;52218;51.224;-2.328;2022-07-29T13:17:21;40.40;30.60
65074;DHT22;52218;51.224;-2.328;2022-07-29T13:21:12;40.20;30.40
65074;DHT22;52218;51.224;-2.328;2022-07-29T13:24:56;40.20;31.00
65074;DHT22;52218;51.224;-2.328;2022-07-29T13:28:38;40.30;30.40
65074;DHT22;52218;51.224;-2.328;2022-07-29T13:32:26;40.40;30.40
65074;DHT22;52218;51.224;-2.328;2022-07-29T13:36:09;40.40;31.60
65074;DHT22;52218;51.224;-2.328;2022-07-29T13:39:51;40.50;34.00
65074;DHT22;52218;51.224;-2.328;2022-07-29T13:43:34;40.60;30.10
65074;DHT22;52218;51.224;-2.328;2022-07-29T13:47:16;40.70;30.50
65074;DHT22;52218;51.224;-2.328;2022-07-29T13:50:58;40.90;30.20
65074;DHT22;52218;51.224;-2.328;2022-07-29T13:54:41;40.80;31.20
65074;DHT22;52218;51.224;-2.328;2022-07-29T13:58:23;40.90;30.10
65074;DHT22;52218;51.224;-2.328;2022-07-29T14:02:05;40.90;30.90
65074;DHT22;52218;51.224;-2.328;2022-07-29T14:05:47;40.90;30.70
65074;DHT22;52218;51.224;-2.328;2022-07-29T14:09:30;40.20;30.90
65074;DHT22;52218;51.224;-2.328;2022-07-29T14:13:22;39.60;32.60
65074;DHT22;52218;51.224;-2.328;2022-07-29T14:17:06;39.60;30.80
65074;DHT22;52218;51.224;-2.328;2022-07-29T14:20:49;39.60;30.70
65074;DHT22;52218;51.224;-2.328;2022-07-29T14:24:31;39.40;31.20
65074;DHT22;52218;51.224;-2.328;2022-07-29T14:28:17;39.40;30.60
65074;DHT22;52218;51.224;-2.328;2022-07-29T14:31:59;38.90;31.00
65074;DHT22;52218;51.224;-2.328;2022-07-29T14:35:42;38.40;31.30
65074;DHT22;52218;51.224;-2.328;2022-07-29T14:39:25;37.90;31.80
65074;DHT22;52218;51.224;-2.328;2022-07-29T14:43:13;37.70;31.90
65074;DHT22;52218;51.224;-2.328;2022-07-29T14:46:55;37.80;32.20
65074;DHT22;52218;51.224;-2.328;2022-07-29T14:50:37;38.00;32.40
65074;DHT22;52218;51.224;-2.328;2022-07-29T14:54:19;37.90;32.00
65074;DHT22;52218;51.224;-2.328;2022-07-29T14:58:01;37.00;32.20
65074;DHT22;52218;51.224;-2.328;2022-07-29T15:01:51;36.10;33.80
65074;DHT22;52218;51.224;-2.328;2022-07-29T15:05:34;35.40;34.10
65074;DHT22;52218;51.224;-2.328;2022-07-29T15:09:16;34.60;34.50
65074;DHT22;52218;51.224;-2.328;2022-07-29T15:12:58;33.80;35.10
65074;DHT22;52218;51.224;-2.328;2022-07-29T15:16:40;33.00;35.50
65074;DHT22;52218;51.224;-2.328;2022-07-29T15:20:28;32.60;36.30
65074;DHT22;52218;51.224;-2.328;2022-07-29T15:24:10;32.60;37.40
65074;DHT22;52218;51.224;-2.328;2022-07-29T15:27:52;33.20;35.70
65074;DHT22;52218;51.224;-2.328;2022-07-29T15:31:41;34.00;35.10
65074;DHT22;52218;51.224;-2.328;2022-07-29T15:35:23;34.30;34.90
65074;DHT22;52218;51.224;-2.328;2022-07-29T15:39:06;34.60;35.90
65074;DHT22;52218;51.224;-2.328;2022-07-29T15:42:48;34.70;34.70
65074;DHT22;52218;51.224;-2.328;2022-07-29T15:46:30;34.70;35.20
65074;DHT22;52218;51.224;-2.328;2022-07-29T15:50:30;34.20;35.10
65074;DHT22;52218;51.224;-2.328;2022-07-29T15:54:12;33.40;35.90
65074;DHT22;52218;51.224;-2.328;2022-07-29T15:57:54;32.70;36.70
65074;DHT22;52218;51.224;-2.328;2022-07-29T16:01:41;32.50;37.10
65074;DHT22;52218;51.224;-2.328;2022-07-29T16:05:23;32.60;38.60
65074;DHT22;52218;51.224;-2.328;2022-07-29T16:09:05;32.20;38.90
65074;DHT22;52218;51.224;-2.328;2022-07-29T16:12:47;31.60;39.90
65074;DHT22;52218;51.224;-2.328;2022-07-29T16:16:29;31.00;40.90
65074;DHT22;52218;51.224;-2.328;2022-07-29T16:20:11;30.40;41.50
65074;DHT22;52218;51.224;-2.328;2022-07-29T16:23:54;29.90;42.00
65074;DHT22;52218;51.224;-2.328;2022-07-29T16:27:36;29.60;43.70
65074;DHT22;52218;51.224;-2.328;2022-07-29T16:31:19;29.20;44.70
65074;DHT22;52218;51.224;-2.328;2022-07-29T16:35:04;29.00;45.40
65074;DHT22;52218;51.224;-2.328;2022-07-29T16:38:46;28.80;45.50
65074;DHT22;52218;51.224;-2.328;2022-07-29T16:42:28;28.50;46.00
65074;DHT22;52218;51.224;-2.328;2022-07-29T16:46:27;28.20;46.40
65074;DHT22;52218;51.224;-2.328;2022-07-29T16:50:09;28.00;46.60
65074;DHT22;52218;51.224;-2.328;2022-07-29T16:53:50;27.90;47.00
65074;DHT22;52218;51.224;-2.328;2022-07-29T16:57:32;27.90;47.00
65074;DHT22;52218;51.224;-2.328;2022-07-29T17:01:14;27.90;46.80
65074;DHT22;52218;51.224;-2.328;2022-07-29T17:04:57;27.90;46.80
65074;DHT22;52218;51.224;-2.328;2022-07-29T17:08:43;27.80;46.70
65074;DHT22;52218;51.224;-2.328;2022-07-29T17:12:25;27.80;46.90
65074;DHT22;52218;51.224;-2.328;2022-07-29T17:16:08;27.70;46.40
65074;DHT22;52218;51.224;-2.328;2022-07-29T17:19:50;27.70;46.80
65074;DHT22;52218;51.224;-2.328;2022-07-29T17:23:32;27.60;48.00
65074;DHT22;52218;51.224;-2.328;2022-07-29T17:27:14;27.60;48.00
65074;DHT22;52218;51.224;-2.328;2022-07-29T17:30:56;27.50;48.00
65074;DHT22;52218;51.224;-2.328;2022-07-29T17:34:40;27.40;48.40
65074;DHT22;52218;51.224;-2.328;2022-07-29T17:38:22;27.30;48.30
65074;DHT22;52218;51.224;-2.328;2022-07-29T17:42:04;27.10;49.40
65074;DHT22;52218;51.224;-2.328;2022-07-29T17:45:47;27.00;49.70
65074;DHT22;52218;51.224;-2.328;2022-07-29T17:49:30;26.80;49.80
65074;DHT22;52218;51.224;-2.328;2022-07-29T17:53:12;26.70;49.70
65074;DHT22;52218;51.224;-2.328;2022-07-29T17:56:57;26.50;50.20
65074;DHT22;52218;51.224;-2.328;2022-07-29T18:00:39;26.40;50.10
65074;DHT22;52218;51.224;-2.328;2022-07-29T18:04:22;26.30;50.20
65074;DHT22;52218;51.224;-2.328;2022-07-29T18:08:05;26.10;50.70
65074;DHT22;52218;51.224;-2.328;2022-07-29T18:11:47;25.90;51.20
65074;DHT22;52218;51.224;-2.328;2022-07-29T18:15:30;25.70;51.00
65074;DHT22;52218;51.224;-2.328;2022-07-29T18:19:12;25.60;51.30
65074;DHT22;52218;51.224;-2.328;2022-07-29T18:22:54;25.40;51.40
65074;DHT22;52218;51.224;-2.328;2022-07-29T18:26:36;25.30;51.40
65074;DHT22;52218;51.224;-2.328;2022-07-29T18:30:19;25.10;51.70
65074;DHT22;52218;51.224;-2.328;2022-07-29T18:34:01;24.90;52.10
65074;DHT22;52218;51.224;-2.328;2022-07-29T18:37:43;24.80;52.20
65074;DHT22;52218;51.224;-2.328;2022-07-29T18:41:43;24.80;52.50
65074;DHT22;52218;51.224;-2.328;2022-07-29T18:45:30;24.70;52.40
65074;DHT22;52218;51.224;-2.328;2022-07-29T18:49:13;24.60;52.30
65074;DHT22;52218;51.224;-2.328;2022-07-29T18:52:56;24.50;52.50
65074;DHT22;52218;51.224;-2.328;2022-07-29T18:56:39;24.50;52.70
65074;DHT22;52218;51.224;-2.328;2022-07-29T19:00:22;24.50;52.80
65074;DHT22;52218;51.224;-2.328;2022-07-29T19:04:04;24.40;53.00
65074;DHT22;52218;51.224;-2.328;2022-07-29T19:07:46;24.40;53.00
65074;DHT22;52218;51.224;-2.328;2022-07-29T19:11:28;24.30;53.40
65074;DHT22;52218;51.224;-2.328;2022-07-29T19:15:10;24.20;53.30
65074;DHT22;52218;51.224;-2.328;2022-07-29T19:18:52;24.10;53.60
65074;DHT22;52218;51.224;-2.328;2022-07-29T19:22:36;24.00;53.10
65074;DHT22;52218;51.224;-2.328;2022-07-29T19:26:19;23.80;53.40
65074;DHT22;52218;51.224;-2.328;2022-07-29T19:30:01;23.70;53.70
65074;DHT22;52218;51.224;-2.328;2022-07-29T19:33:45;23.60;54.20
65074;DHT22;52218;51.224;-2.328;2022-07-29T19:37:27;23.40;54.60
65074;DHT22;52218;51.224;-2.328;2022-07-29T19:41:10;23.40;55.20
65074;DHT22;52218;51.224;-2.328;2022-07-29T19:44:53;23.30;56.10
65074;DHT22;52218;51.224;-2.328;2022-07-29T19:48:35;23.20;57.70
65074;DHT22;52218;51.224;-2.328;2022-07-29T19:52:17;23.20;58.30
65074;DHT22;52218;51.224;-2.328;2022-07-29T19:55:59;23.10;58.50
65074;DHT22;52218;51.224;-2.328;2022-07-29T19:59:42;23.00;58.60
65074;DHT22;52218;51.224;-2.328;2022-07-29T20:03:24;23.00;59.20
65074;DHT22;52218;51.224;-2.328;2022-07-29T20:07:06;22.90;59.60
65074;DHT22;52218;51.224;-2.328;2022-07-29T20:10:48;22.80;60.70
65074;DHT22;52218;51.224;-2.328;2022-07-29T20:14:30;22.60;60.70
65074;DHT22;52218;51.224;-2.328;2022-07-29T20:18:12;22.50;61.70
65074;DHT22;52218;51.224;-2.328;2022-07-29T20:21:56;22.40;62.20
65074;DHT22;52218;51.224;-2.328;2022-07-29T20:25:38;22.20;63.10
65074;DHT22;52218;51.224;-2.328;2022-07-29T20:29:20;22.10;63.70
65074;DHT22;52218;51.224;-2.328;2022-07-29T20:33:02;22.00;64.30
65074;DHT22;52218;51.224;-2.328;2022-07-29T20:36:44;21.80;65.00
65074;DHT22;52218;51.224;-2.328;2022-07-29T20:40:27;21.80;65.40
65074;DHT22;52218;51.224;-2.328;2022-07-29T20:44:09;21.70;65.80
65074;DHT22;52218;51.224;-2.328;2022-07-29T20:47:52;21.50;66.40
65074;DHT22;52218;51.224;-2.328;2022-07-29T20:51:34;21.40;66.80
65074;DHT22;52218;51.224;-2.328;2022-07-29T20:55:24;21.40;67.30
65074;DHT22;52218;51.224;-2.328;2022-07-29T20:59:07;21.30;67.60
65074;DHT22;52218;51.224;-2.328;2022-07-29T21:02:49;21.20;67.90
65074;DHT22;52218;51.224;-2.328;2022-07-29T21:06:32;21.10;68.50
65074;DHT22;52218;51.224;-2.328;2022-07-29T21:10:15;21.00;68.90
65074;DHT22;52218;51.224;-2.328;2022-07-29T21:13:59;20.90;69.50
65074;DHT22;52218;51.224;-2.328;2022-07-29T21:17:42;20.80;70.20
65074;DHT22;52218;51.224;-2.328;2022-07-29T21:21:27;20.80;71.00
65074;DHT22;52218;51.224;-2.328;2022-07-29T21:25:10;20.70;71.10
65074;DHT22;52218;51.224;-2.328;2022-07-29T21:28:52;20.60;71.30
65074;DHT22;52218;51.224;-2.328;2022-07-29T21:32:34;20.50;71.80
65074;DHT22;52218;51.224;-2.328;2022-07-29T21:36:16;20.40;72.30
65074;DHT22;52218;51.224;-2.328;2022-07-29T21:40:19;20.30;72.90
65074;DHT22;52218;51.224;-2.328;2022-07-29T21:44:01;20.20;73.10
65074;DHT22;52218;51.224;-2.328;2022-07-29T21:47:42;20.10;73.40
65074;DHT22;52218;51.224;-2.328;2022-07-29T21:51:24;20.10;73.70
65074;DHT22;52218;51.224;-2.328;2022-07-29T21:55:07;19.90;74.20
65074;DHT22;52218;51.224;-2.328;2022-07-29T21:58:52;19.90;74.70
65074;DHT22;52218;51.224;-2.328;2022-07-29T22:02:34;19.80;75.20
65074;DHT22;52218;51.224;-2.328;2022-07-29T22:06:16;19.80;75.90
65074;DHT22;52218;51.224;-2.328;2022-07-29T22:09:58;19.70;76.40
65074;DHT22;52218;51.224;-2.328;2022-07-29T22:13:40;19.60;77.20
65074;DHT22;52218;51.224;-2.328;2022-07-29T22:17:22;19.50;78.10
65074;DHT22;52218;51.224;-2.328;2022-07-29T22:21:07;19.50;78.70
65074;DHT22;52218;51.224;-2.328;2022-07-29T22:24:49;19.40;79.10
65074;DHT22;52218;51.224;-2.328;2022-07-29T22:28:31;19.30;79.80
65074;DHT22;52218;51.224;-2.328;2022-07-29T22:32:13;19.30;80.40
65074;DHT22;52218;51.224;-2.328;2022-07-29T22:35:55;19.20;81.10
65074;DHT22;52218;51.224;-2.328;2022-07-29T22:39:37;19.10;81.90
65074;DHT22;52218;51.224;-2.328;2022-07-29T22:43:19;19.10;82.90
65074;DHT22;52218;51.224;-2.328;2022-07-29T22:47:03;18.90;84.10
65074;DHT22;52218;51.224;-2.328;2022-07-29T22:50:45;18.90;85.40
65074;DHT22;52218;51.224;-2.328;2022-07-29T22:54:27;18.80;86.50
65074;DHT22;52218;51.224;-2.328;2022-07-29T22:58:09;18.80;87.30
65074;DHT22;52218;51.224;-2.328;2022-07-29T23:01:51;18.70;88.50
65074;DHT22;52218;51.224;-2.328;2022-07-29T23:05:33;18.70;88.40
65074;DHT22;52218;51.224;-2.328;2022-07-29T23:09:15;18.60;88.10
65074;DHT22;52218;51.224;-2.328;2022-07-29T23:12:57;18.60;87.80
65074;DHT22;52218;51.224;-2.328;2022-07-29T23:16:39;18.60;87.20
65074;DHT22;52218;51.224;-2.328;2022-07-29T23:20:21;18.60;87.20
65074;DHT22;52218;51.224;-2.328;2022-07-29T23:24:03;18.50;87.50
65074;DHT22;52218;51.224;-2.328;2022-07-29T23:27:45;18.50;88.30
65074;DHT22;52218;51.224;-2.328;2022-07-29T23:31:27;18.40;89.00
65074;DHT22;52218;51.224;-2.328;2022-07-29T23:35:09;18.40;88.90
65074;DHT22;52218;51.224;-2.328;2022-07-29T23:38:51;18.30;89.60
65074;DHT22;52218;51.224;-2.328;2022-07-29T23:42:35;18.30;90.00